Time;durP1;ratioP1;P1;durP2;ratioP2;P2;SDS_P1;SDS_P2;PMS_P1;PMS_P2;Temp;Humidity;BMP_temperature;BMP_pressure;BME280_temperature;BME280_humidity;BME280_pressure;Samples;Min_cycle;Max_cycle;Signal;HPM_P1;HPM_P2
2023/04/14 00:03:16;;;;;;;2.03;0.40;;;19.30;99.90;;;;;;5149501;27;20916;-63
2023/04/14 00:05:43;;;;;;;1.27;0.40;;;19.40;99.90;;;;;;5130836;27;20046;-63
2023/04/14 00:08:10;;;;;;;3.85;0.30;;;19.40;99.90;;;;;;5135090;27;20117;-66
2023/04/14 00:10:38;;;;;;;1.88;0.50;;;19.20;99.90;;;;;;5141777;27;20031;-63
2023/04/14 00:13:05;;;;;;;2.42;0.63;;;19.00;99.90;;;;;;5135858;27;20196;-64
2023/04/14 00:15:33;;;;;;;2.35;0.63;;;19.00;99.90;;;;;;5128371;27;20842;-64
2023/04/14 00:18:00;;;;;;;2.53;0.60;;;19.00;99.90;;;;;;5129541;27;20479;-61
2023/04/14 00:20:28;;;;;;;2.10;0.50;;;19.00;99.90;;;;;;5143995;27;20023;-62
2023/04/14 00:22:55;;;;;;;1.90;0.40;;;18.80;99.90;;;;;;5133390;27;20023;-61
2023/04/14 00:25:22;;;;;;;5.07;0.63;;;18.80;99.90;;;;;;5140812;27;20023;-61
2023/04/14 00:27:50;;;;;;;3.50;0.75;;;18.90;99.90;;;;;;5121266;27;20083;-61
2023/04/14 00:30:17;;;;;;;5.32;0.90;;;18.90;99.90;;;;;;5136314;27;20088;-62
2023/04/14 00:32:45;;;;;;;2.38;0.80;;;19.10;99.90;;;;;;5133171;27;20039;-64
2023/04/14 00:35:12;;;;;;;2.47;0.50;;;19.40;99.90;;;;;;5129825;27;20030;-62
2023/04/14 00:37:40;;;;;;;2.08;0.60;;;19.70;99.90;;;;;;5130362;27;20550;-62
2023/04/14 00:40:09;;;;;;;3.47;0.40;;;19.80;99.90;;;;;;5130116;27;20027;-61
2023/04/14 00:42:44;;;;;;;3.17;0.35;;;20.00;99.90;;;;;;5135536;27;20509;-62
2023/04/14 00:45:13;;;;;;;0.73;0.40;;;20.20;99.90;;;;;;5129153;27;20034;-62
2023/04/14 00:47:48;;;;;;;4.50;0.90;;;20.60;99.90;;;;;;5128073;27;20529;-62
2023/04/14 00:50:20;;;;;;;1.60;0.40;;;20.90;99.90;;;;;;5119069;28;20028;-62
2023/04/14 00:52:49;;;;;;;1.63;0.47;;;20.90;99.90;;;;;;5114185;28;20031;-62
2023/04/14 00:55:21;;;;;;;2.30;0.40;;;20.90;99.90;;;;;;5121830;28;20050;-62
2023/04/14 00:57:50;;;;;;;0.63;0.50;;;20.90;99.90;;;;;;5103797;28;20049;-62
2023/04/14 01:00:18;;;;;;;3.08;0.68;;;21.00;99.90;;;;;;5117548;28;20383;-61
2023/04/14 01:02:45;;;;;;;3.88;0.32;;;21.20;99.90;;;;;;5111645;28;20591;-64
2023/04/14 01:05:13;;;;;;;4.30;0.55;;;21.30;99.90;;;;;;5098718;28;20081;-62
2023/04/14 01:07:41;;;;;;;1.40;0.50;;;21.30;99.90;;;;;;5096355;28;20027;-62
2023/04/14 01:10:10;;;;;;;2.80;0.68;;;21.30;99.90;;;;;;5100782;28;20016;-62
2023/04/14 01:12:49;;;;;;;2.85;0.50;;;21.30;99.90;;;;;;5098546;28;20012;-62
2023/04/14 01:15:46;;;;;;;2.75;0.82;;;21.30;99.90;;;;;;5098373;28;20020;-62
2023/04/14 01:18:36;;;;;;;3.08;0.73;;;21.30;99.90;;;;;;5099537;28;20028;-62
2023/04/14 01:21:10;;;;;;;2.13;0.60;;;21.30;99.90;;;;;;5096377;28;20108;-62
2023/04/14 01:23:59;;;;;;;5.53;0.73;;;21.40;99.90;;;;;;5079458;28;20507;-62
2023/04/14 01:26:31;;;;;;;4.78;0.73;;;21.60;99.90;;;;;;5110722;28;20024;-62
2023/04/14 01:29:25;;;;;;;1.98;0.60;;;21.60;99.90;;;;;;5101005;28;20057;-62
2023/04/14 01:32:00;;;;;;;4.70;0.75;;;21.80;99.90;;;;;;5104402;28;20139;-62
2023/04/14 01:34:45;;;;;;;7.40;1.40;;;22.20;99.90;;;;;;5095541;28;20048;-63
2023/04/14 01:37:15;;;;;;;4.47;0.40;;;22.70;99.90;;;;;;5086244;28;20068;-62
2023/04/14 01:39:47;;;;;;;7.70;0.70;;;22.60;99.90;;;;;;5096693;28;20024;-62
2023/04/14 01:42:22;;;;;;;1.83;0.65;;;22.80;99.90;;;;;;5101974;28;20391;-63
2023/04/14 01:44:56;;;;;;;2.53;0.70;;;23.00;99.90;;;;;;5080523;28;20051;-62
2023/04/14 01:47:26;;;;;;;2.53;0.80;;;23.20;99.90;;;;;;5098035;28;20036;-62
2023/04/14 01:49:54;;;;;;;3.90;0.50;;;23.10;99.90;;;;;;5102430;28;20114;-62
2023/04/14 01:52:23;;;;;;;4.70;0.60;;;22.90;99.90;;;;;;5097217;28;20466;-62
2023/04/14 01:54:54;;;;;;;3.35;0.70;;;22.70;99.90;;;;;;5102052;28;20072;-61
2023/04/14 01:57:24;;;;;;;2.05;0.60;;;22.40;99.90;;;;;;5085412;28;20027;-62
2023/04/14 01:59:54;;;;;;;5.47;0.60;;;22.20;99.90;;;;;;5102531;28;20032;-62
2023/04/14 02:02:23;;;;;;;3.63;0.77;;;22.30;99.90;;;;;;5098836;28;20035;-62
2023/04/14 02:04:52;;;;;;;6.38;1.20;;;22.00;99.90;;;;;;5097631;28;20060;-62
2023/04/14 02:07:21;;;;;;;3.17;0.60;;;21.90;99.90;;;;;;5080926;28;20429;-62
2023/04/14 02:09:51;;;;;;;4.57;0.60;;;21.90;99.90;;;;;;5103133;28;20038;-62
2023/04/14 02:12:22;;;;;;;2.33;0.50;;;21.90;99.90;;;;;;5093811;28;20538;-62
2023/04/14 02:14:50;;;;;;;3.38;0.90;;;21.90;99.90;;;;;;5094290;28;20032;-62
2023/04/14 02:17:20;;;;;;;2.88;0.50;;;22.00;99.90;;;;;;5096445;28;20124;-62
2023/04/14 02:19:48;;;;;;;7.90;0.60;;;22.00;99.90;;;;;;5102737;28;20035;-62
2023/04/14 02:22:16;;;;;;;2.30;0.50;;;22.10;99.90;;;;;;5106742;28;20038;-63
2023/04/14 02:24:43;;;;;;;2.10;0.60;;;22.10;99.90;;;;;;5098856;28;20031;-61
2023/04/14 02:27:27;;;;;;;5.57;1.30;;;21.90;99.90;;;;;;5103358;28;20104;-62
2023/04/14 02:29:56;;;;;;;2.33;0.50;;;21.80;99.90;;;;;;5101597;28;20023;-61
2023/04/14 02:32:27;;;;;;;2.92;0.70;;;21.80;99.90;;;;;;5095732;28;20020;-61
2023/04/14 02:35:10;;;;;;;3.38;0.70;;;21.50;99.90;;;;;;5090617;28;20047;-61
2023/04/14 02:37:43;;;;;;;4.07;0.80;;;21.20;99.90;;;;;;5094861;28;20032;-61
2023/04/14 02:40:26;;;;;;;3.88;0.95;;;20.90;99.90;;;;;;5098551;28;20027;-62
2023/04/14 02:43:02;;;;;;;2.45;1.52;;;20.90;99.90;;;;;;5097799;28;20031;-61
2023/04/14 02:45:35;;;;;;;3.17;0.40;;;20.90;99.90;;;;;;5098504;28;20120;-62
2023/04/14 02:48:08;;;;;;;3.72;1.13;;;20.80;99.90;;;;;;5100745;28;20016;-62
2023/04/14 02:50:36;;;;;;;2.28;0.73;;;20.70;99.90;;;;;;5100021;28;20836;-62
2023/04/14 02:53:05;;;;;;;4.10;1.30;;;20.70;99.90;;;;;;5093487;28;20479;-61
2023/04/14 02:55:34;;;;;;;5.05;0.80;;;20.70;99.90;;;;;;5100710;28;20375;-62
2023/04/14 02:58:02;;;;;;;4.45;1.35;;;20.70;99.90;;;;;;5108306;28;20118;-62
2023/04/14 03:00:30;;;;;;;3.33;0.68;;;20.90;99.90;;;;;;5098224;28;20020;-62
2023/04/14 03:02:59;;;;;;;3.90;1.45;;;21.30;99.90;;;;;;5103622;28;20365;-62
2023/04/14 03:05:27;;;;;;;6.80;0.80;;;21.80;99.90;;;;;;5102480;28;20027;-62
2023/04/14 03:07:55;;;;;;;2.78;0.80;;;22.30;99.90;;;;;;5096515;28;20032;-62
2023/04/14 03:10:24;;;;;;;6.95;0.88;;;22.50;99.90;;;;;;5104859;28;20079;-62
2023/04/14 03:12:53;;;;;;;1.77;0.57;;;22.30;99.90;;;;;;5103598;28;20023;-62
2023/04/14 03:15:21;;;;;;;1.98;0.50;;;22.30;99.90;;;;;;5098742;28;20026;-62
2023/04/14 03:17:54;;;;;;;1.73;0.73;;;22.30;99.90;;;;;;5103875;28;20020;-62
2023/04/14 03:20:22;;;;;;;3.63;0.65;;;22.40;99.90;;;;;;5095227;28;20035;-62
2023/04/14 03:23:04;;;;;;;4.28;0.70;;;22.50;99.90;;;;;;5071859;28;20062;-61
2023/04/14 03:25:37;;;;;;;4.25;0.50;;;22.60;99.90;;;;;;5097147;28;20514;-62
2023/04/14 03:28:09;;;;;;;4.35;0.77;;;22.70;99.90;;;;;;5094517;28;20103;-61
2023/04/14 03:30:48;;;;;;;3.13;1.00;;;23.00;99.90;;;;;;5098480;28;20043;-60
2023/04/14 03:33:19;;;;;;;1.02;0.55;;;23.30;99.90;;;;;;5087480;28;20354;-61
2023/04/14 03:35:49;;;;;;;4.22;0.65;;;23.70;99.90;;;;;;5094171;28;20024;-60
2023/04/14 03:38:18;;;;;;;2.58;0.47;;;23.80;99.90;;;;;;5076727;28;20020;-59
2023/04/14 03:40:48;;;;;;;6.45;1.40;;;23.60;99.90;;;;;;5098757;28;20032;-59
2023/04/14 03:43:21;;;;;;;1.95;0.93;;;23.20;99.90;;;;;;5086556;28;20787;-60
2023/04/14 03:45:50;;;;;;;2.72;0.60;;;22.50;99.90;;;;;;5084929;28;20890;-59
2023/04/14 03:48:19;;;;;;;4.50;0.88;;;22.10;99.90;;;;;;5096785;28;20035;-59
2023/04/14 03:50:50;;;;;;;3.90;0.90;;;21.80;99.90;;;;;;5092867;28;20031;-59
2023/04/14 03:53:20;;;;;;;5.00;1.10;;;21.50;99.90;;;;;;5095892;28;20024;-59
2023/04/14 03:55:51;;;;;;;2.15;0.90;;;21.10;99.90;;;;;;5078603;28;20032;-59
2023/04/14 03:58:19;;;;;;;4.68;0.85;;;20.80;99.90;;;;;;5100482;28;20027;-58
2023/04/14 04:00:48;;;;;;;6.03;0.88;;;20.70;99.90;;;;;;5095924;28;20066;-61
2023/04/14 04:03:16;;;;;;;3.40;0.70;;;20.60;99.90;;;;;;5098324;28;20024;-59
2023/04/14 04:05:44;;;;;;;4.35;1.42;;;20.90;99.90;;;;;;5099431;28;20032;-59
2023/04/14 04:08:14;;;;;;;5.68;1.20;;;21.30;99.90;;;;;;5073443;28;20526;-61
2023/04/14 04:10:43;;;;;;;4.10;1.67;;;21.70;99.90;;;;;;5095255;28;20028;-61
2023/04/14 04:13:16;;;;;;;6.60;1.98;;;21.90;99.90;;;;;;5087129;28;20016;-62
2023/04/14 04:15:45;;;;;;;6.72;1.23;;;22.30;99.90;;;;;;5099218;28;20049;-59
2023/04/14 04:18:16;;;;;;;8.18;1.40;;;22.30;99.90;;;;;;5087742;28;20497;-61
2023/04/14 04:20:45;;;;;;;5.72;0.75;;;22.30;99.90;;;;;;5091491;28;20483;-60
2023/04/14 04:23:13;;;;;;;2.95;0.70;;;22.30;99.90;;;;;;5093474;28;20081;-60
2023/04/14 04:25:41;;;;;;;4.00;0.60;;;22.00;99.90;;;;;;5092492;28;20161;-60
2023/04/14 04:28:10;;;;;;;3.08;0.90;;;21.80;99.90;;;;;;5074270;28;20559;-60
2023/04/14 04:30:40;;;;;;;5.05;0.70;;;21.70;99.90;;;;;;5094156;28;20084;-62
2023/04/14 04:33:07;;;;;;;6.85;0.75;;;21.40;99.90;;;;;;5100197;28;20036;-62
2023/04/14 04:35:36;;;;;;;5.25;0.70;;;21.20;99.90;;;;;;5096465;28;20024;-61
2023/04/14 04:38:04;;;;;;;5.63;1.50;;;21.20;99.90;;;;;;5104401;28;20034;-61
2023/04/14 04:40:38;;;;;;;7.13;0.70;;;21.20;99.90;;;;;;5095062;28;20027;-61
2023/04/14 04:43:06;;;;;;;1.85;0.60;;;21.30;99.90;;;;;;5103558;28;20032;-62
2023/04/14 04:46:03;;;;;;;5.22;1.05;;;21.40;99.90;;;;;;5096512;28;20016;-62
2023/04/14 04:48:30;;;;;;;3.35;1.30;;;21.60;99.90;;;;;;5101355;28;20472;-62
2023/04/14 04:50:58;;;;;;;3.33;0.52;;;21.80;99.90;;;;;;5081541;28;20027;-61
2023/04/14 04:53:25;;;;;;;4.57;0.80;;;21.80;99.90;;;;;;5093679;28;20032;-61
2023/04/14 04:55:52;;;;;;;6.95;0.77;;;21.70;99.90;;;;;;5092041;28;20024;-60
2023/04/14 04:58:20;;;;;;;1.75;0.43;;;21.60;99.90;;;;;;5107191;28;20428;-60
2023/04/14 05:00:47;;;;;;;2.83;0.52;;;21.50;99.90;;;;;;5080117;28;20392;-60
2023/04/14 05:03:15;;;;;;;2.70;0.57;;;21.40;99.90;;;;;;5079408;28;20020;-60
2023/04/14 05:05:42;;;;;;;2.33;0.63;;;21.30;99.90;;;;;;5105370;28;20506;-60
2023/04/14 05:08:10;;;;;;;2.75;0.60;;;21.20;99.90;;;;;;5103080;28;20076;-60
2023/04/14 05:10:37;;;;;;;2.83;0.60;;;21.10;99.90;;;;;;5081860;28;20501;-60
2023/04/14 05:13:05;;;;;;;2.83;0.60;;;21.20;99.90;;;;;;5099271;28;20035;-61
2023/04/14 05:15:32;;;;;;;1.25;0.40;;;21.20;99.90;;;;;;5104030;28;20107;-60
2023/04/14 05:18:00;;;;;;;4.22;1.13;;;21.30;99.90;;;;;;5080610;28;20019;-61
2023/04/14 05:20:28;;;;;;;4.38;0.70;;;21.40;99.90;;;;;;5097219;28;20027;-61
2023/04/14 05:22:55;;;;;;;2.85;0.57;;;21.60;99.90;;;;;;5106608;28;20039;-61
2023/04/14 05:25:23;;;;;;;1.48;0.60;;;21.60;99.90;;;;;;5102953;28;20387;-61
2023/04/14 05:27:50;;;;;;;3.60;0.65;;;21.60;99.90;;;;;;5105634;28;20112;-61
2023/04/14 05:30:18;;;;;;;8.13;2.28;;;21.60;99.90;;;;;;5097194;28;20535;-62
2023/04/14 05:32:45;;;;;;;4.25;0.80;;;21.70;99.90;;;;;;5104136;28;20388;-61
2023/04/14 05:35:12;;;;;;;2.63;0.40;;;21.70;99.90;;;;;;5105146;28;20032;-60
2023/04/14 05:37:40;;;;;;;2.40;0.80;;;21.70;99.90;;;;;;5101994;28;20042;-60
2023/04/14 05:40:08;;;;;;;2.45;0.52;;;21.60;99.90;;;;;;5077988;28;20118;-60
2023/04/14 05:42:36;;;;;;;5.15;0.93;;;21.50;99.90;;;;;;5096899;28;20032;-59
2023/04/14 05:45:03;;;;;;;3.65;0.50;;;21.50;99.90;;;;;;5078328;28;20043;-60
2023/04/14 05:47:31;;;;;;;4.93;0.80;;;21.50;99.90;;;;;;5104686;28;20528;-60
2023/04/14 05:49:59;;;;;;;5.45;0.57;;;21.40;99.90;;;;;;5104665;28;20027;-59
2023/04/14 05:52:27;;;;;;;3.60;0.55;;;21.40;99.90;;;;;;5098295;28;20024;-61
2023/04/14 05:54:54;;;;;;;1.38;0.45;;;21.30;99.90;;;;;;5101711;28;20652;-60
2023/04/14 05:57:21;;;;;;;4.80;0.90;;;21.20;99.90;;;;;;5093813;28;20035;-60
2023/04/14 05:59:49;;;;;;;2.45;0.57;;;21.10;99.90;;;;;;5107100;28;20023;-60
2023/04/14 06:02:16;;;;;;;2.17;0.80;;;21.00;99.90;;;;;;5093117;28;20051;-60
2023/04/14 06:04:44;;;;;;;3.13;0.95;;;20.90;99.90;;;;;;5087509;28;20035;-60
2023/04/14 06:07:11;;;;;;;2.20;0.50;;;20.80;99.90;;;;;;5102371;28;20050;-60
2023/04/14 06:09:39;;;;;;;3.38;0.90;;;20.70;99.90;;;;;;5103753;28;20023;-59
2023/04/14 06:12:07;;;;;;;0.90;0.40;;;20.50;99.90;;;;;;5107253;28;20027;-60
2023/04/14 06:14:35;;;;;;;0.80;0.43;;;20.50;99.90;;;;;;5097427;28;20040;-60
2023/04/14 06:17:02;;;;;;;4.90;0.63;;;20.40;99.90;;;;;;5105559;28;20019;-60
2023/04/14 06:19:30;;;;;;;3.00;0.70;;;20.40;99.90;;;;;;5100784;28;20467;-60
2023/04/14 06:21:57;;;;;;;1.58;0.40;;;20.40;99.90;;;;;;5096412;28;20036;-60
2023/04/14 06:24:25;;;;;;;5.22;0.60;;;20.50;99.90;;;;;;5095798;28;20027;-60
2023/04/14 06:26:52;;;;;;;0.55;0.35;;;20.40;99.90;;;;;;5075174;28;20058;-60
2023/04/14 06:29:20;;;;;;;10.95;0.90;;;20.50;99.90;;;;;;5074803;28;20032;-61
2023/04/14 06:31:47;;;;;;;3.95;0.95;;;20.50;99.90;;;;;;5104260;28;20027;-62
2023/04/14 06:34:15;;;;;;;3.30;0.68;;;20.50;99.90;;;;;;5095328;28;20099;-60
2023/04/14 06:36:42;;;;;;;3.42;0.77;;;20.50;99.90;;;;;;5098557;28;20035;-60
2023/04/14 06:39:10;;;;;;;4.65;0.68;;;20.60;99.90;;;;;;5108170;28;20022;-60
2023/04/14 06:41:37;;;;;;;2.90;0.70;;;20.60;99.90;;;;;;5097665;28;20036;-60
2023/04/14 06:44:05;;;;;;;2.38;0.47;;;20.60;99.90;;;;;;5084151;28;20107;-60
2023/04/14 06:46:34;;;;;;;3.20;0.60;;;20.60;99.90;;;;;;5099483;28;20081;-60
2023/04/14 06:49:02;;;;;;;5.20;0.90;;;20.50;99.90;;;;;;5097816;28;20020;-60
2023/04/14 06:51:31;;;;;;;5.88;0.68;;;20.30;99.90;;;;;;5095323;28;20102;-60
2023/04/14 06:53:58;;;;;;;4.70;0.85;;;20.10;99.90;;;;;;5108070;28;20022;-60
2023/04/14 06:56:26;;;;;;;4.72;0.70;;;20.00;99.90;;;;;;5095335;28;20061;-61
2023/04/14 06:58:54;;;;;;;3.13;0.85;;;19.80;99.90;;;;;;5100239;28;20028;-60
2023/04/14 07:01:21;;;;;;;3.90;0.80;;;19.70;99.90;;;;;;5096856;28;20040;-60
2023/04/14 07:03:48;;;;;;;2.25;0.70;;;19.60;99.90;;;;;;5072038;28;20035;-60
2023/04/14 07:06:16;;;;;;;3.78;0.50;;;19.50;99.90;;;;;;5078118;28;20027;-64
2023/04/14 07:08:45;;;;;;;2.45;0.90;;;19.40;99.90;;;;;;5100534;28;20077;-61
2023/04/14 07:11:12;;;;;;;4.20;0.80;;;19.30;99.90;;;;;;5093016;28;20028;-62
2023/04/14 07:13:40;;;;;;;5.57;2.33;;;19.30;99.90;;;;;;5079374;28;20070;-62
2023/04/14 07:16:08;;;;;;;5.32;1.25;;;19.20;99.90;;;;;;5097864;28;20022;-61
2023/04/14 07:18:36;;;;;;;3.88;0.90;;;19.10;99.90;;;;;;5092215;28;20024;-62
2023/04/14 07:21:03;;;;;;;3.50;1.48;;;19.10;99.90;;;;;;5077260;28;20055;-62
2023/04/14 07:23:32;;;;;;;3.15;0.60;;;19.00;99.90;;;;;;5101185;28;20115;-61
2023/04/14 07:26:00;;;;;;;4.07;0.80;;;18.90;99.90;;;;;;5096139;28;20472;-62
2023/04/14 07:28:28;;;;;;;3.25;0.82;;;18.80;99.90;;;;;;5095510;28;20024;-62
2023/04/14 07:30:55;;;;;;;5.60;1.23;;;18.70;99.90;;;;;;5099547;28;20028;-62
2023/04/14 07:33:23;;;;;;;6.45;0.90;;;18.60;99.90;;;;;;5101258;28;20019;-61
2023/04/14 07:35:55;;;;;;;3.05;1.17;;;18.40;99.90;;;;;;5081991;28;20046;-61
2023/04/14 07:38:24;;;;;;;7.60;1.80;;;18.30;99.90;;;;;;5102596;28;20019;-61
2023/04/14 07:40:52;;;;;;;4.50;1.02;;;18.20;99.90;;;;;;5095249;28;20027;-61
2023/04/14 07:43:19;;;;;;;5.75;1.45;;;18.20;99.90;;;;;;5102013;28;20106;-61
2023/04/14 07:45:47;;;;;;;4.97;1.50;;;18.20;99.90;;;;;;5101920;28;20077;-62
2023/04/14 07:48:14;;;;;;;3.70;0.95;;;18.10;99.90;;;;;;5093636;28;20361;-61
2023/04/14 07:50:41;;;;;;;8.80;1.40;;;18.00;99.90;;;;;;5105749;28;20024;-61
2023/04/14 07:53:09;;;;;;;2.28;0.95;;;17.80;99.90;;;;;;5086497;28;20530;-62
2023/04/14 07:55:36;;;;;;;8.80;2.00;;;17.70;99.90;;;;;;5080259;28;20034;-61
2023/04/14 07:58:04;;;;;;;2.40;1.08;;;17.60;99.90;;;;;;5092563;28;20034;-61
2023/04/14 08:00:31;;;;;;;4.63;1.45;;;17.50;99.90;;;;;;5070364;28;20023;-61
2023/04/14 08:02:59;;;;;;;2.85;0.93;;;17.30;99.90;;;;;;5094727;28;20522;-61
2023/04/14 08:05:26;;;;;;;7.18;1.85;;;17.20;99.90;;;;;;5075555;28;20068;-61
2023/04/14 08:07:54;;;;;;;8.05;1.52;;;17.10;99.90;;;;;;5097343;28;20034;-61
2023/04/14 08:10:21;;;;;;;6.85;1.27;;;17.00;99.90;;;;;;5101776;28;20036;-62
2023/04/14 08:12:49;;;;;;;4.75;1.52;;;17.00;99.90;;;;;;5102350;28;20024;-62
2023/04/14 08:15:16;;;;;;;5.28;1.58;;;17.00;99.90;;;;;;5099110;28;20032;-62
2023/04/14 08:17:44;;;;;;;5.97;1.20;;;16.90;99.90;;;;;;5098386;28;20036;-62
2023/04/14 08:20:12;;;;;;;7.35;1.40;;;16.90;99.90;;;;;;5082025;28;20530;-62
2023/04/14 08:22:39;;;;;;;7.45;1.17;;;16.90;99.90;;;;;;5098805;28;20042;-62
2023/04/14 08:25:10;;;;;;;9.90;1.20;;;16.90;99.90;;;;;;5098789;28;20495;-62
2023/04/14 08:27:38;;;;;;;8.40;1.30;;;16.80;99.90;;;;;;5084348;28;20027;-65
2023/04/14 08:30:07;;;;;;;14.98;1.45;;;16.70;99.90;;;;;;5082273;28;20032;-62
2023/04/14 08:32:34;;;;;;;12.52;1.80;;;16.70;99.90;;;;;;5103068;28;20056;-62
2023/04/14 08:35:02;;;;;;;11.48;2.08;;;16.70;99.90;;;;;;5100291;28;20028;-62
2023/04/14 08:37:31;;;;;;;9.15;1.30;;;16.70;99.90;;;;;;5100740;28;20032;-62
2023/04/14 08:39:58;;;;;;;14.90;2.28;;;16.60;99.90;;;;;;5101191;28;20024;-62
2023/04/14 08:42:26;;;;;;;25.70;2.45;;;16.60;99.90;;;;;;5100079;28;20036;-63
2023/04/14 08:44:54;;;;;;;11.73;1.90;;;16.60;99.90;;;;;;5085378;28;20721;-63
2023/04/14 08:47:23;;;;;;;17.48;2.17;;;16.60;99.90;;;;;;5093398;28;20020;-62
2023/04/14 08:50:06;;;;;;;19.30;2.40;;;16.50;99.90;;;;;;5093127;28;20055;-62
2023/04/14 08:52:40;;;;;;;15.00;2.08;;;16.40;99.90;;;;;;5099181;28;20034;-62
2023/04/14 08:55:09;;;;;;;6.88;1.45;;;16.30;99.90;;;;;;5078177;28;20028;-63
2023/04/14 08:57:38;;;;;;;5.35;1.35;;;16.20;99.90;;;;;;5104356;28;20032;-62
2023/04/14 09:00:06;;;;;;;4.50;1.55;;;16.10;99.90;;;;;;5107592;28;20027;-62
2023/04/14 09:02:35;;;;;;;7.28;1.30;;;16.10;99.90;;;;;;5094260;28;20054;-63
2023/04/14 09:05:03;;;;;;;7.15;1.90;;;16.10;99.90;;;;;;5108131;28;20038;-62
2023/04/14 09:07:30;;;;;;;13.20;2.20;;;16.10;99.90;;;;;;5100916;28;20028;-63
2023/04/14 09:09:58;;;;;;;6.03;1.65;;;16.10;99.90;;;;;;5103429;28;20024;-63
2023/04/14 09:12:27;;;;;;;10.40;1.52;;;16.20;99.90;;;;;;5103786;28;20107;-63
2023/04/14 09:14:58;;;;;;;7.60;1.52;;;16.30;99.90;;;;;;5073051;28;20086;-62
2023/04/14 09:17:30;;;;;;;5.80;1.25;;;16.30;99.90;;;;;;5091030;28;20024;-62
2023/04/14 09:19:57;;;;;;;5.72;1.42;;;16.40;99.90;;;;;;5090973;28;20035;-62
2023/04/14 09:22:25;;;;;;;6.57;1.30;;;16.40;99.90;;;;;;5105842;28;20043;-63
2023/04/14 09:24:52;;;;;;;8.38;1.25;;;16.40;99.90;;;;;;5087203;28;20110;-62
2023/04/14 09:27:20;;;;;;;4.15;1.23;;;16.40;99.90;;;;;;5109560;28;20030;-62
2023/04/14 09:29:49;;;;;;;5.85;1.35;;;16.40;99.90;;;;;;5106530;28;20055;-62
2023/04/14 09:32:16;;;;;;;6.65;1.45;;;16.30;99.90;;;;;;5101792;28;20024;-62
2023/04/14 09:34:53;;;;;;;3.22;1.17;;;16.20;99.90;;;;;;5098144;28;20456;-61
2023/04/14 09:37:21;;;;;;;2.15;0.85;;;16.20;99.90;;;;;;5105614;28;20096;-63
2023/04/14 09:39:56;;;;;;;8.18;1.20;;;16.20;99.90;;;;;;5091678;28;20480;-62
2023/04/14 09:42:38;;;;;;;10.43;1.20;;;16.20;99.90;;;;;;5097612;28;20131;-62
2023/04/14 09:45:07;;;;;;;10.07;1.73;;;16.10;99.90;;;;;;5109342;28;20051;-62
2023/04/14 09:47:34;;;;;;;6.50;1.08;;;16.10;99.90;;;;;;5107408;28;20384;-62
2023/04/14 09:50:03;;;;;;;2.72;0.90;;;16.10;99.90;;;;;;5090617;28;20028;-62
2023/04/14 09:52:45;;;;;;;13.30;1.10;;;16.10;99.90;;;;;;5089382;28;20020;-63
2023/04/14 09:55:15;;;;;;;9.30;1.35;;;16.20;99.90;;;;;;5099992;28;20119;-62
2023/04/14 09:57:46;;;;;;;2.92;1.00;;;16.30;99.90;;;;;;5089455;28;20476;-63
2023/04/14 10:00:21;;;;;;;15.23;2.30;;;16.40;99.90;;;;;;5106968;28;20043;-62
2023/04/14 10:02:57;;;;;;;4.93;1.33;;;16.40;99.90;;;;;;5095866;28;20135;-63
2023/04/14 10:05:30;;;;;;;3.75;1.20;;;16.40;99.90;;;;;;5099124;28;20031;-62
2023/04/14 10:08:03;;;;;;;6.60;1.20;;;16.40;99.90;;;;;;5109092;28;20027;-62
2023/04/14 10:10:30;;;;;;;5.65;1.05;;;16.40;99.90;;;;;;5106124;28;20031;-62
2023/04/14 10:13:00;;;;;;;8.57;1.10;;;16.40;99.90;;;;;;5099278;28;20107;-62
2023/04/14 10:15:27;;;;;;;6.15;2.03;;;16.40;99.90;;;;;;5101273;28;20038;-62
2023/04/14 10:17:55;;;;;;;4.60;0.98;;;16.40;99.90;;;;;;5093824;28;20036;-62
2023/04/14 10:20:23;;;;;;;3.97;1.17;;;16.40;99.90;;;;;;5109008;28;20383;-62
2023/04/14 10:22:51;;;;;;;5.22;1.13;;;16.40;99.90;;;;;;5106392;28;20027;-62
2023/04/14 10:25:19;;;;;;;5.82;1.20;;;16.30;99.90;;;;;;5088499;28;20516;-63
2023/04/14 10:27:48;;;;;;;11.05;1.20;;;16.30;99.90;;;;;;5089222;28;20513;-63
2023/04/14 10:30:15;;;;;;;5.53;1.15;;;16.30;99.90;;;;;;5097209;28;20024;-62
2023/04/14 10:32:46;;;;;;;6.90;1.27;;;16.30;99.90;;;;;;5091066;28;20035;-62
2023/04/14 10:35:17;;;;;;;9.13;1.35;;;16.30;99.90;;;;;;5089222;28;20147;-63
2023/04/14 10:37:52;;;;;;;6.00;1.70;;;16.30;99.90;;;;;;5097021;28;20032;-62
2023/04/14 10:40:20;;;;;;;6.65;1.58;;;16.30;99.90;;;;;;5083176;28;20023;-63
2023/04/14 10:42:54;;;;;;;7.25;1.25;;;16.30;99.90;;;;;;5104137;28;20563;-62
2023/04/14 10:45:22;;;;;;;7.97;1.58;;;16.30;99.90;;;;;;5106397;28;20445;-62
2023/04/14 10:47:52;;;;;;;4.45;1.30;;;16.30;99.90;;;;;;5108160;28;20085;-62
2023/04/14 10:50:24;;;;;;;4.70;1.52;;;16.30;99.90;;;;;;5096452;28;20027;-63
2023/04/14 10:52:57;;;;;;;7.85;1.85;;;16.20;99.90;;;;;;5105249;28;20023;-62
2023/04/14 10:55:26;;;;;;;7.70;1.70;;;16.20;99.90;;;;;;5102105;28;20024;-63
2023/04/14 10:58:05;;;;;;;2.88;1.10;;;16.10;99.90;;;;;;5078345;28;20020;-61
2023/04/14 11:00:38;;;;;;;12.43;2.33;;;16.10;99.90;;;;;;5093089;28;20012;-62
2023/04/14 11:03:11;;;;;;;9.23;2.58;;;16.00;99.90;;;;;;5087665;28;20210;-62
2023/04/14 11:05:49;;;;;;;10.80;1.70;;;15.90;99.90;;;;;;5078312;28;20046;-63
2023/04/14 11:08:26;;;;;;;4.72;1.70;;;15.80;99.90;;;;;;5105769;28;20120;-63
2023/04/14 11:11:06;;;;;;;6.78;1.52;;;15.80;99.90;;;;;;5103693;28;20122;-61
2023/04/14 11:13:37;;;;;;;7.93;1.60;;;15.70;99.90;;;;;;5069879;28;20450;-62
2023/04/14 11:16:06;;;;;;;7.75;2.10;;;15.60;99.90;;;;;;5070000;28;20035;-61
2023/04/14 11:18:44;;;;;;;8.98;1.52;;;15.60;99.90;;;;;;5088167;28;20028;-62
2023/04/14 11:21:15;;;;;;;3.58;1.08;;;15.60;99.90;;;;;;5092054;28;20039;-62
2023/04/14 11:23:43;;;;;;;7.70;1.23;;;15.60;99.90;;;;;;5090692;28;20063;-62
2023/04/14 11:26:12;;;;;;;6.95;1.88;;;15.70;99.90;;;;;;5098924;28;20487;-62
2023/04/14 11:28:43;;;;;;;3.83;1.20;;;15.70;99.90;;;;;;5095003;28;20469;-62
2023/04/14 11:31:14;;;;;;;3.85;1.55;;;15.60;99.90;;;;;;5100087;28;20038;-61
2023/04/14 11:33:43;;;;;;;2.55;1.13;;;15.70;99.90;;;;;;5081931;28;20449;-63
2023/04/14 11:36:12;;;;;;;4.53;0.98;;;15.60;99.90;;;;;;5096781;28;20475;-63
2023/04/14 11:38:40;;;;;;;6.82;1.52;;;15.60;99.90;;;;;;5096732;28;20055;-63
2023/04/14 11:41:08;;;;;;;3.55;1.00;;;15.60;99.90;;;;;;5093110;28;20100;-63
2023/04/14 11:43:37;;;;;;;8.90;1.73;;;15.50;99.90;;;;;;5095031;28;20031;-63
2023/04/14 11:46:07;;;;;;;8.23;3.15;;;15.50;99.90;;;;;;5102940;28;20369;-62
2023/04/14 11:48:35;;;;;;;5.72;1.60;;;15.50;99.90;;;;;;5094976;28;20100;-62
2023/04/14 11:51:03;;;;;;;7.22;1.35;;;15.60;99.90;;;;;;5100045;28;20479;-62
2023/04/14 11:53:31;;;;;;;4.70;1.40;;;15.60;99.90;;;;;;5075838;28;20381;-61
2023/04/14 11:56:00;;;;;;;7.18;1.90;;;15.60;99.90;;;;;;5069324;28;20060;-63
2023/04/14 11:58:27;;;;;;;5.97;1.73;;;15.60;99.90;;;;;;5090374;28;20465;-63
2023/04/14 12:00:58;;;;;;;5.07;1.13;;;15.60;99.90;;;;;;5100964;28;20040;-63
2023/04/14 12:03:31;;;;;;;2.63;1.10;;;15.50;99.90;;;;;;5105887;28;20036;-63
2023/04/14 12:06:00;;;;;;;5.63;1.20;;;15.50;99.90;;;;;;5100405;28;20028;-62
2023/04/14 12:08:30;;;;;;;4.00;1.27;;;15.40;99.90;;;;;;5088199;28;20077;-62
2023/04/14 12:11:12;;;;;;;7.32;2.00;;;15.40;99.90;;;;;;5099531;28;20439;-62
2023/04/14 12:13:46;;;;;;;7.15;1.30;;;15.30;99.90;;;;;;5082507;28;20062;-63
2023/04/14 12:16:16;;;;;;;4.13;1.10;;;15.10;99.90;;;;;;5090629;28;20407;-63
2023/04/14 12:18:44;;;;;;;3.45;1.30;;;15.10;99.90;;;;;;5097767;28;20023;-63
2023/04/14 12:21:17;;;;;;;4.28;1.65;;;15.00;99.90;;;;;;5098640;28;20040;-63
2023/04/14 12:23:49;;;;;;;4.28;1.30;;;15.00;99.90;;;;;;5106428;28;20024;-63
2023/04/14 12:26:18;;;;;;;6.53;1.45;;;15.00;99.90;;;;;;5090160;28;20027;-64
2023/04/14 12:28:54;;;;;;;7.47;1.60;;;15.00;99.90;;;;;;5071454;28;20392;-64
2023/04/14 12:31:28;;;;;;;4.35;1.60;;;14.90;99.90;;;;;;5094154;28;20107;-64
2023/04/14 12:34:05;;;;;;;3.75;1.55;;;14.90;99.90;;;;;;5108427;28;20026;-63
2023/04/14 12:36:32;;;;;;;5.95;1.75;;;14.80;99.90;;;;;;5101532;28;20039;-63
2023/04/14 12:39:08;;;;;;;5.22;1.40;;;14.80;99.90;;;;;;5094833;28;20078;-64
2023/04/14 12:41:39;;;;;;;7.13;1.40;;;14.80;99.90;;;;;;5094199;28;20437;-62
2023/04/14 12:44:19;;;;;;;3.10;1.00;;;14.70;99.90;;;;;;5104323;28;20380;-62
2023/04/14 12:46:51;;;;;;;6.80;1.27;;;14.60;99.90;;;;;;5096186;28;20036;-62
2023/04/14 12:49:36;;;;;;;5.18;1.52;;;14.40;99.90;;;;;;5104103;28;20508;-62
2023/04/14 12:52:03;;;;;;;;;;;14.30;99.90;;;;;;5102230;28;20036;-62
2023/04/14 12:55:06;;;;;;;6.43;1.35;;;14.20;99.90;;;;;;5103659;28;19914;-63
2023/04/14 12:57:34;;;;;;;8.80;1.58;;;14.30;99.90;;;;;;5044510;28;20024;-62
2023/04/14 13:00:03;;;;;;;7.50;2.05;;;14.20;99.90;;;;;;5079115;28;20455;-64
2023/04/14 13:02:32;;;;;;;6.55;1.77;;;14.20;99.90;;;;;;5092635;28;20098;-62